Onaway, Idaho
Current Conditions -  °F | °C
As of 9:53 AM on Thursday 30 Oct 2014 (Local Time) from KPUW Reporting Station
Broken Clouds Broken Clouds  
Wind Chill: 53°   Ceiling: 11000
Heat Index: 53°   Visibility: 10mi
Dew Point: 41°   Wind: 17mph
Humidity: 64%   Direction: 100°E
Pressure: 30.1"   Gusts: NA
Location:  46.9986°N, 116.937°W
Report Text: KPUW 301653Z AUTO 10015KT 10SM FEW085 BKN110 12/05 A3010 RMK AO2 SLP198 T01170050
Loading
Personal Weather Stations






























Interactive Weather Map
Tropical Storm Tracking
New forecast layout! Learn more

10-Day Weather Forecast

Advertisements
Track Severe Weather on mobile